Time;durP1;ratioP1;P1;durP2;ratioP2;P2;SDS_P1;SDS_P2;PMS_P1;PMS_P2;Temp;Humidity;BMP_temperature;BMP_pressure;BME280_temperature;BME280_humidity;BME280_pressure;Samples;Min_cycle;Max_cycle;Signal;HPM_P1;HPM_P2
2022/10/13 00:01:43;;;;;;;0.10;0.10;;;9.50;99.90;;;;;;5032290;28;20662;-79
2022/10/13 00:04:09;;;;;;;0.10;0.10;;;9.50;99.90;;;;;;5032637;28;20272;-79
2022/10/13 00:06:34;;;;;;;0.10;0.10;;;9.50;99.90;;;;;;5031878;28;20254;-79
2022/10/13 00:09:00;;;;;;;0.10;0.10;;;9.60;99.90;;;;;;5034177;28;20217;-79
2022/10/13 00:11:29;;;;;;;0.00;0.00;;;9.60;99.90;;;;;;5031710;28;20183;-79
2022/10/13 00:13:57;;;;;;;0.10;0.10;;;9.60;99.90;;;;;;5033275;28;20190;-79
2022/10/13 00:16:24;;;;;;;0.10;0.10;;;9.60;99.90;;;;;;5032882;28;20382;-79
2022/10/13 00:18:50;;;;;;;0.07;0.07;;;9.50;99.90;;;;;;5036323;28;20212;-80
2022/10/13 00:21:19;;;;;;;0.10;0.10;;;9.40;99.90;;;;;;5032370;28;20196;-79
2022/10/13 00:23:46;;;;;;;0.00;0.00;;;9.40;99.90;;;;;;5033641;28;20196;-79
2022/10/13 00:26:14;;;;;;;0.10;0.10;;;9.40;99.90;;;;;;5034442;28;20279;-80
2022/10/13 00:28:39;;;;;;;0.10;0.10;;;9.40;99.90;;;;;;5036963;28;20219;-80
2022/10/13 00:31:17;;;;;;;0.00;0.00;;;9.50;99.90;;;;;;5033193;28;20197;-80
2022/10/13 00:33:42;;;;;;;0.10;0.10;;;9.60;99.90;;;;;;5033579;28;20228;-79
2022/10/13 00:36:08;;;;;;;0.00;0.00;;;9.60;99.90;;;;;;5031326;28;20684;-80
2022/10/13 00:38:33;;;;;;;0.00;0.00;;;9.60;99.90;;;;;;5032378;28;20719;-79
2022/10/13 00:40:59;;;;;;;0.10;0.10;;;9.70;99.90;;;;;;5031644;28;20188;-79
2022/10/13 00:43:45;;;;;;;0.10;0.10;;;9.60;99.90;;;;;;5034009;28;20998;-80
2022/10/13 00:46:10;;;;;;;0.00;0.00;;;9.50;99.90;;;;;;5031928;28;20189;-80
2022/10/13 00:48:36;;;;;;;0.10;0.10;;;9.10;99.90;;;;;;5033098;28;20213;-79
2022/10/13 00:51:02;;;;;;;0.10;0.10;;;9.10;99.90;;;;;;5033295;28;20286;-79
2022/10/13 00:53:32;;;;;;;0.00;0.00;;;9.10;99.90;;;;;;5033183;28;20255;-80
2022/10/13 00:55:57;;;;;;;0.03;0.03;;;9.10;99.90;;;;;;5034019;28;20305;-79
2022/10/13 00:58:30;;;;;;;0.10;0.10;;;9.10;99.90;;;;;;5035368;28;20296;-80
2022/10/13 01:00:56;;;;;;;0.10;0.10;;;9.20;99.90;;;;;;5034100;28;20177;-80
2022/10/13 01:03:23;;;;;;;0.10;0.10;;;9.20;99.90;;;;;;5033181;28;20279;-79
2022/10/13 01:05:51;;;;;;;0.03;0.03;;;9.30;99.90;;;;;;5033655;28;20208;-79
2022/10/13 01:08:18;;;;;;;0.00;0.00;;;9.30;99.90;;;;;;5034261;28;20190;-79
2022/10/13 01:11:04;;;;;;;0.10;0.10;;;9.40;99.90;;;;;;5036585;28;20207;-79
2022/10/13 01:13:38;;;;;;;0.10;0.10;;;9.30;99.90;;;;;;5035346;28;20190;-79
2022/10/13 01:16:34;;;;;;;0.00;0.00;;;9.40;99.90;;;;;;5037575;28;20214;-79
2022/10/13 01:19:21;;;;;;;0.00;0.00;;;9.40;99.90;;;;;;5037669;28;20203;-79
2022/10/13 01:22:07;;;;;;;0.10;0.10;;;9.50;99.90;;;;;;5037359;28;20180;-79
2022/10/13 01:24:43;;;;;;;0.00;0.00;;;9.50;99.90;;;;;;5036299;28;20186;-79
2022/10/13 01:27:24;;;;;;;0.10;0.10;;;9.70;99.90;;;;;;5039577;28;20200;-80
2022/10/13 01:30:04;;;;;;;0.10;0.10;;;9.80;99.90;;;;;;5035134;28;20234;-80
2022/10/13 01:32:50;;;;;;;0.10;0.10;;;9.90;99.90;;;;;;5036131;28;20185;-79
2022/10/13 01:35:39;;;;;;;0.10;0.10;;;9.90;99.90;;;;;;5034581;28;20218;-80
2022/10/13 01:38:35;;;;;;;0.07;0.07;;;9.40;99.90;;;;;;5037382;28;20179;-80
2022/10/13 01:41:11;;;;;;;0.10;0.10;;;9.30;99.90;;;;;;5036927;28;20186;-79
2022/10/13 01:43:49;;;;;;;0.00;0.00;;;9.30;99.90;;;;;;5037167;28;20187;-79
2022/10/13 01:46:22;;;;;;;0.10;0.10;;;9.40;99.90;;;;;;5034413;28;20641;-81
2022/10/13 01:48:50;;;;;;;0.07;0.07;;;9.50;99.90;;;;;;5037193;28;20776;-80
2022/10/13 01:51:21;;;;;;;0.00;0.00;;;9.70;99.90;;;;;;5034094;28;20274;-79
2022/10/13 01:53:47;;;;;;;0.10;0.10;;;9.80;99.90;;;;;;5035557;28;20192;-80
2022/10/13 01:56:13;;;;;;;0.10;0.10;;;9.90;99.90;;;;;;5033998;28;20307;-80
2022/10/13 01:58:39;;;;;;;0.10;0.10;;;10.00;99.90;;;;;;5035781;28;20386;-79
2022/10/13 02:01:13;;;;;;;0.10;0.10;;;10.10;99.90;;;;;;5031672;28;20193;-79
2022/10/13 02:04:19;;;;;;;0.00;0.00;;;10.10;99.90;;;;;;5033945;28;20251;-80
2022/10/13 02:07:11;;;;;;;0.10;0.10;;;10.20;99.90;;;;;;5024771;28;20266;-79
2022/10/13 02:10:01;;;;;;;1.30;1.30;;;10.30;99.90;;;;;;5036244;28;20228;-79
2022/10/13 02:12:48;;;;;;;0.07;0.07;;;10.40;99.90;;;;;;5033046;28;20189;-79
2022/10/13 02:15:18;;;;;;;0.10;0.10;;;10.40;99.90;;;;;;5035366;28;20205;-79
2022/10/13 02:17:43;;;;;;;0.10;0.10;;;10.40;99.90;;;;;;5035849;28;20185;-80
2022/10/13 02:20:10;;;;;;;0.10;0.10;;;10.40;99.90;;;;;;5031101;28;20217;-80
2022/10/13 02:22:42;;;;;;;0.10;0.10;;;10.40;99.90;;;;;;5035953;28;20649;-80
2022/10/13 02:25:08;;;;;;;0.07;0.07;;;10.40;99.90;;;;;;5034074;28;20185;-79
2022/10/13 02:27:34;;;;;;;0.10;0.10;;;10.50;99.90;;;;;;5034380;28;20275;-79
2022/10/13 02:29:59;;;;;;;0.10;0.10;;;10.40;99.90;;;;;;5034547;28;20312;-79
2022/10/13 02:32:25;;;;;;;0.10;0.10;;;10.40;99.90;;;;;;5035882;28;20591;-80
2022/10/13 02:34:50;;;;;;;0.10;0.10;;;10.40;99.90;;;;;;5035505;28;20261;-80
2022/10/13 02:37:17;;;;;;;0.10;0.10;;;10.30;99.90;;;;;;5037653;28;20199;-79
2022/10/13 02:39:42;;;;;;;0.10;0.10;;;10.30;99.90;;;;;;5035544;28;20318;-79
2022/10/13 02:42:08;;;;;;;0.00;0.00;;;10.40;99.90;;;;;;5036120;28;20283;-79
2022/10/13 02:44:34;;;;;;;0.10;0.10;;;10.30;99.90;;;;;;5032498;28;20191;-80
2022/10/13 02:46:59;;;;;;;0.10;0.10;;;10.40;99.90;;;;;;5035859;28;20232;-80
2022/10/13 02:49:25;;;;;;;0.10;0.10;;;10.40;99.90;;;;;;5035439;28;20205;-79
2022/10/13 02:51:52;;;;;;;0.10;0.10;;;10.40;99.90;;;;;;5037411;28;20195;-80
2022/10/13 02:54:18;;;;;;;0.10;0.10;;;10.40;99.90;;;;;;5032925;28;20189;-79
2022/10/13 02:56:43;;;;;;;0.00;0.00;;;10.30;99.90;;;;;;5032301;28;20220;-79
2022/10/13 02:59:09;;;;;;;0.10;0.10;;;10.40;99.90;;;;;;5033823;28;20213;-79
2022/10/13 03:01:40;;;;;;;0.10;0.10;;;10.40;99.90;;;;;;5034212;28;20194;-79
2022/10/13 03:04:06;;;;;;;0.10;0.10;;;10.40;99.90;;;;;;5034645;28;20663;-80
2022/10/13 03:06:31;;;;;;;0.00;0.00;;;10.40;99.90;;;;;;5033221;28;20192;-79
2022/10/13 03:08:58;;;;;;;0.00;0.00;;;10.50;99.90;;;;;;5034072;28;20211;-79
2022/10/13 03:11:23;;;;;;;0.10;0.10;;;10.50;99.90;;;;;;5031307;28;20242;-80
2022/10/13 03:13:49;;;;;;;0.00;0.00;;;10.50;99.90;;;;;;5032823;28;20199;-80
2022/10/13 03:16:14;;;;;;;0.00;0.00;;;10.50;99.90;;;;;;5034754;28;20220;-80
2022/10/13 03:18:40;;;;;;;0.10;0.10;;;10.50;99.90;;;;;;5033880;28;20209;-79
2022/10/13 03:21:06;;;;;;;0.10;0.10;;;10.60;99.90;;;;;;5035526;28;20256;-80
2022/10/13 03:23:32;;;;;;;0.10;0.10;;;10.60;99.90;;;;;;5035431;28;20187;-80
2022/10/13 03:25:59;;;;;;;0.10;0.10;;;10.60;99.90;;;;;;5035358;28;20189;-80
2022/10/13 03:28:24;;;;;;;0.00;0.00;;;10.60;99.90;;;;;;5037430;28;20298;-79
2022/10/13 03:30:58;;;;;;;0.10;0.10;;;10.70;99.90;;;;;;5034618;28;20256;-79
2022/10/13 03:33:23;;;;;;;0.10;0.10;;;10.70;99.90;;;;;;5035134;28;20646;-80
2022/10/13 03:35:49;;;;;;;0.10;0.10;;;10.70;99.90;;;;;;5036349;28;20201;-79
2022/10/13 03:38:14;;;;;;;0.10;0.10;;;10.70;99.90;;;;;;5035250;28;20194;-80
2022/10/13 03:40:40;;;;;;;0.00;0.00;;;10.70;99.90;;;;;;5035367;28;20235;-80
2022/10/13 03:43:05;;;;;;;0.10;0.10;;;10.60;99.90;;;;;;5035823;28;20212;-79
2022/10/13 03:45:31;;;;;;;0.10;0.10;;;10.60;99.90;;;;;;5034973;28;20620;-80
2022/10/13 03:47:57;;;;;;;0.10;0.10;;;10.70;99.90;;;;;;5033154;28;20229;-79
2022/10/13 03:50:23;;;;;;;0.10;0.10;;;10.70;99.90;;;;;;5033247;28;20205;-80
2022/10/13 03:52:48;;;;;;;0.10;0.10;;;10.70;99.90;;;;;;5033316;28;20185;-80
2022/10/13 03:55:14;;;;;;;0.10;0.10;;;10.60;99.90;;;;;;5035650;28;20213;-79
2022/10/13 03:57:40;;;;;;;0.10;0.10;;;10.60;99.90;;;;;;5031315;28;20192;-79
2022/10/13 04:00:09;;;;;;;0.10;0.10;;;10.60;99.90;;;;;;5034711;28;20250;-79
2022/10/13 04:02:35;;;;;;;0.10;0.10;;;10.60;99.90;;;;;;5032166;28;20262;-79
2022/10/13 04:05:00;;;;;;;0.00;0.00;;;10.60;99.90;;;;;;5036714;28;20273;-80
2022/10/13 04:07:26;;;;;;;0.10;0.10;;;10.60;99.90;;;;;;5037179;28;20190;-80
2022/10/13 04:09:51;;;;;;;0.10;0.10;;;10.60;99.90;;;;;;5032706;28;20228;-80
2022/10/13 04:12:18;;;;;;;0.10;0.10;;;10.70;99.90;;;;;;5033848;28;20198;-80
2022/10/13 04:14:43;;;;;;;0.10;0.10;;;10.60;99.90;;;;;;5031676;28;20187;-80
2022/10/13 04:17:09;;;;;;;0.10;0.10;;;10.60;99.90;;;;;;5034602;28;20190;-79
2022/10/13 04:19:34;;;;;;;0.10;0.10;;;10.70;99.90;;;;;;5033871;28;20238;-80
2022/10/13 04:22:00;;;;;;;0.10;0.10;;;10.60;99.90;;;;;;5032546;28;20260;-80
2022/10/13 04:24:26;;;;;;;0.10;0.10;;;10.70;99.90;;;;;;5034389;28;20190;-79
2022/10/13 04:26:51;;;;;;;0.10;0.10;;;10.70;99.90;;;;;;5032459;28;20213;-80
2022/10/13 04:29:17;;;;;;;0.10;0.10;;;10.60;99.90;;;;;;5034887;28;20209;-80
2022/10/13 04:31:42;;;;;;;0.10;0.10;;;10.60;99.90;;;;;;5033552;28;20288;-80
2022/10/13 04:34:08;;;;;;;0.10;0.10;;;10.70;99.90;;;;;;5032638;28;20275;-79
2022/10/13 04:36:34;;;;;;;0.10;0.10;;;10.70;99.90;;;;;;5029727;28;20206;-80
2022/10/13 04:39:00;;;;;;;0.10;0.10;;;10.80;99.90;;;;;;5033965;28;20743;-79
2022/10/13 04:41:25;;;;;;;0.10;0.10;;;10.70;99.90;;;;;;5031543;28;20186;-80
2022/10/13 04:43:52;;;;;;;0.10;0.10;;;10.70;99.90;;;;;;5035577;28;20180;-79
2022/10/13 04:46:24;;;;;;;0.10;0.10;;;10.70;99.90;;;;;;5037194;28;20214;-81
2022/10/13 04:48:50;;;;;;;0.10;0.10;;;10.70;99.90;;;;;;5039523;28;20304;-80
2022/10/13 04:51:18;;;;;;;0.10;0.10;;;10.70;99.90;;;;;;5038918;28;20327;-80
2022/10/13 04:53:44;;;;;;;0.10;0.10;;;10.70;99.90;;;;;;5038995;28;20656;-80
2022/10/13 04:56:13;;;;;;;0.10;0.10;;;10.70;99.90;;;;;;5039925;28;20224;-80
2022/10/13 04:58:40;;;;;;;0.10;0.10;;;10.80;99.90;;;;;;5042758;28;20292;-80
2022/10/13 05:01:07;;;;;;;0.00;0.00;;;10.80;99.90;;;;;;5041440;28;20215;-79
2022/10/13 05:03:33;;;;;;;0.10;0.10;;;10.80;99.90;;;;;;5041132;28;20195;-79
2022/10/13 05:05:58;;;;;;;0.00;0.00;;;10.80;99.90;;;;;;5044236;28;20264;-78
2022/10/13 05:08:24;;;;;;;0.10;0.10;;;10.80;99.90;;;;;;5040235;28;20206;-79
2022/10/13 05:11:00;;;;;;;0.10;0.10;;;10.80;99.90;;;;;;5040981;28;20232;-80
2022/10/13 05:13:27;;;;;;;0.10;0.10;;;10.60;99.90;;;;;;5038171;28;20186;-82
2022/10/13 05:15:52;;;;;;;0.10;0.10;;;10.40;99.90;;;;;;5039824;28;20212;-83
2022/10/13 05:18:18;;;;;;;0.10;0.10;;;10.20;99.90;;;;;;5039073;28;20271;-83
2022/10/13 05:20:45;;;;;;;0.10;0.10;;;10.00;99.90;;;;;;5035309;28;20200;-83
2022/10/13 05:23:10;;;;;;;0.10;0.10;;;10.20;99.90;;;;;;5038384;28;20185;-82
2022/10/13 05:25:36;;;;;;;0.10;0.10;;;10.30;99.90;;;;;;5039795;28;20219;-82
2022/10/13 05:28:04;;;;;;;0.10;0.10;;;10.00;99.90;;;;;;5042184;28;20535;-82
2022/10/13 05:30:29;;;;;;;0.10;0.10;;;9.80;99.90;;;;;;5043166;28;20693;-81
2022/10/13 05:32:55;;;;;;;0.10;0.10;;;9.90;99.90;;;;;;5037205;28;20186;-83
2022/10/13 05:35:20;;;;;;;0.10;0.10;;;10.00;99.90;;;;;;5046280;28;20248;-83
2022/10/13 05:37:46;;;;;;;0.10;0.10;;;10.00;99.90;;;;;;5043828;28;20196;-83
2022/10/13 05:40:11;;;;;;;0.10;0.10;;;10.10;99.90;;;;;;5041030;28;20209;-82
2022/10/13 05:42:37;;;;;;;0.10;0.10;;;10.30;99.90;;;;;;5039073;28;20265;-79
2022/10/13 05:45:03;;;;;;;0.10;0.10;;;10.30;99.90;;;;;;5036366;28;20213;-79
2022/10/13 05:47:29;;;;;;;0.10;0.10;;;10.40;99.90;;;;;;5033840;28;20182;-80
2022/10/13 05:49:54;;;;;;;0.10;0.10;;;10.30;99.90;;;;;;5034227;28;20213;-80
2022/10/13 05:52:22;;;;;;;0.10;0.10;;;10.50;99.90;;;;;;5035804;28;20204;-80
2022/10/13 05:54:53;;;;;;;0.10;0.10;;;10.50;99.90;;;;;;5030416;28;20181;-79
2022/10/13 05:57:23;;;;;;;0.10;0.10;;;10.60;99.90;;;;;;5038735;28;20194;-79
2022/10/13 05:59:52;;;;;;;0.10;0.10;;;10.70;99.90;;;;;;5034613;28;20205;-79
2022/10/13 06:02:21;;;;;;;0.10;0.10;;;10.70;99.90;;;;;;5039390;28;20519;-79
2022/10/13 06:04:50;;;;;;;0.10;0.10;;;10.70;99.90;;;;;;5035800;28;20186;-80
2022/10/13 06:07:16;;;;;;;0.10;0.10;;;10.90;99.90;;;;;;5037323;28;20202;-80
2022/10/13 06:09:42;;;;;;;0.10;0.10;;;10.90;99.90;;;;;;5034676;28;20251;-80
2022/10/13 06:12:09;;;;;;;0.10;0.10;;;10.90;99.90;;;;;;5034288;28;20231;-80
2022/10/13 06:14:35;;;;;;;0.10;0.10;;;10.90;99.90;;;;;;5035427;28;20185;-80
2022/10/13 06:17:00;;;;;;;0.10;0.10;;;10.90;99.90;;;;;;5038393;28;20193;-81
2022/10/13 06:19:26;;;;;;;0.10;0.10;;;10.70;99.90;;;;;;5035778;28;20205;-81
2022/10/13 06:21:52;;;;;;;0.10;0.10;;;10.60;99.90;;;;;;5038638;28;20192;-81
2022/10/13 06:24:17;;;;;;;0.10;0.10;;;10.40;99.90;;;;;;5034613;28;20613;-81
2022/10/13 06:26:43;;;;;;;0.10;0.10;;;10.20;99.90;;;;;;5034200;28;20197;-79
2022/10/13 06:29:09;;;;;;;0.10;0.10;;;10.10;99.90;;;;;;5033205;28;20210;-79
2022/10/13 06:31:34;;;;;;;0.10;0.10;;;10.10;99.90;;;;;;5035948;28;20200;-80
2022/10/13 06:34:00;;;;;;;0.10;0.10;;;10.20;99.90;;;;;;5033992;28;20208;-79
2022/10/13 06:36:26;;;;;;;0.10;0.10;;;10.20;99.90;;;;;;5033677;28;20248;-80
2022/10/13 06:38:52;;;;;;;0.10;0.10;;;10.10;99.90;;;;;;5030295;28;20210;-79
2022/10/13 06:41:17;;;;;;;0.10;0.10;;;10.20;99.90;;;;;;5028825;28;20245;-79
2022/10/13 06:43:43;;;;;;;0.10;0.10;;;10.20;99.90;;;;;;5032226;28;20761;-80
2022/10/13 06:46:10;;;;;;;0.10;0.10;;;10.20;99.90;;;;;;5033328;28;20301;-80
2022/10/13 06:48:36;;;;;;;0.10;0.10;;;10.20;99.90;;;;;;5033161;28;20225;-80
2022/10/13 06:51:05;;;;;;;0.10;0.10;;;10.30;99.90;;;;;;5033532;28;20680;-80
2022/10/13 06:53:31;;;;;;;0.10;0.10;;;10.20;99.90;;;;;;5030521;28;20192;-81
2022/10/13 06:55:58;;;;;;;0.10;0.10;;;10.20;99.90;;;;;;5031359;28;20203;-80
2022/10/13 06:58:23;;;;;;;0.10;0.10;;;10.30;99.90;;;;;;5029638;28;20269;-80
2022/10/13 07:00:49;;;;;;;0.10;0.10;;;10.30;99.90;;;;;;5040602;28;20214;-79
2022/10/13 07:03:14;;;;;;;0.10;0.10;;;10.40;99.90;;;;;;5042931;28;20194;-80
2022/10/13 07:05:40;;;;;;;0.07;0.07;;;10.40;99.90;;;;;;5042891;28;21246;-80
2022/10/13 07:08:05;;;;;;;0.10;0.10;;;10.40;99.90;;;;;;5045052;28;20186;-80
2022/10/13 07:10:31;;;;;;;0.10;0.10;;;10.40;99.90;;;;;;5043848;28;20202;-80
2022/10/13 07:12:57;;;;;;;0.00;0.00;;;10.60;99.90;;;;;;5043266;28;20769;-79
2022/10/13 07:15:23;;;;;;;0.10;0.10;;;10.60;99.90;;;;;;5043220;28;20228;-79
2022/10/13 07:17:53;;;;;;;0.00;0.00;;;10.70;99.90;;;;;;5045689;28;20254;-80
2022/10/13 07:20:20;;;;;;;0.10;0.10;;;10.70;99.90;;;;;;5044871;28;20209;-79
2022/10/13 07:22:46;;;;;;;0.10;0.10;;;10.70;99.90;;;;;;5045791;28;20181;-80
2022/10/13 07:25:12;;;;;;;0.10;0.10;;;10.60;99.90;;;;;;5041041;28;20193;-80
2022/10/13 07:27:39;;;;;;;0.10;0.10;;;10.50;99.90;;;;;;5044791;28;20186;-79
2022/10/13 07:30:07;;;;;;;0.10;0.10;;;10.50;99.90;;;;;;5042528;28;20200;-79
2022/10/13 07:32:33;;;;;;;0.00;0.00;;;10.70;99.90;;;;;;5045060;28;20189;-79
2022/10/13 07:34:59;;;;;;;0.10;0.10;;;10.70;99.90;;;;;;5044601;28;20202;-79
2022/10/13 07:37:25;;;;;;;0.10;0.10;;;10.90;99.90;;;;;;5042761;28;20190;-79
2022/10/13 07:39:50;;;;;;;0.10;0.10;;;11.10;99.90;;;;;;5045451;28;20230;-80
2022/10/13 07:42:16;;;;;;;0.10;0.10;;;11.10;99.90;;;;;;5043071;28;20286;-79
2022/10/13 07:44:42;;;;;;;0.10;0.10;;;11.20;99.90;;;;;;5045752;28;20190;-80
2022/10/13 07:47:08;;;;;;;0.10;0.10;;;11.20;99.90;;;;;;5044615;28;20179;-80
2022/10/13 07:49:33;;;;;;;0.10;0.10;;;11.30;99.90;;;;;;5045336;28;20206;-80
2022/10/13 07:51:59;;;;;;;0.10;0.10;;;11.40;99.90;;;;;;5044484;28;20197;-80
2022/10/13 07:54:24;;;;;;;0.10;0.10;;;11.50;99.90;;;;;;5044608;28;20398;-80
2022/10/13 07:56:51;;;;;;;0.10;0.10;;;11.20;99.90;;;;;;5041362;28;20202;-80
2022/10/13 07:59:18;;;;;;;0.07;0.07;;;11.30;99.90;;;;;;5039857;28;20293;-79
2022/10/13 08:01:43;;;;;;;0.10;0.10;;;11.30;99.90;;;;;;5040041;28;20657;-79
2022/10/13 08:04:09;;;;;;;0.10;0.10;;;11.60;99.90;;;;;;5040661;28;20187;-80
2022/10/13 08:06:34;;;;;;;0.10;0.10;;;11.80;99.90;;;;;;5038145;28;20609;-79
2022/10/13 08:09:02;;;;;;;0.10;0.10;;;11.80;99.90;;;;;;5039442;28;20597;-79
2022/10/13 08:11:27;;;;;;;0.00;0.00;;;11.90;99.90;;;;;;5034121;28;20190;-80
2022/10/13 08:13:54;;;;;;;0.10;0.10;;;11.80;99.90;;;;;;5036223;28;20503;-80
2022/10/13 08:16:21;;;;;;;0.10;0.10;;;11.70;99.90;;;;;;5040691;28;20210;-80
2022/10/13 08:18:47;;;;;;;0.10;0.10;;;12.00;99.90;;;;;;5037697;28;20220;-80
2022/10/13 08:21:16;;;;;;;0.00;0.00;;;11.90;99.90;;;;;;5040239;28;20222;-79
2022/10/13 08:23:42;;;;;;;0.10;0.10;;;11.70;99.90;;;;;;5040456;28;20185;-80
2022/10/13 08:26:18;;;;;;;0.10;0.10;;;11.80;99.90;;;;;;5039423;28;20197;-79
2022/10/13 08:28:43;;;;;;;0.10;0.10;;;12.10;99.90;;;;;;5038897;28;20208;-79
2022/10/13 08:31:09;;;;;;;0.10;0.10;;;12.40;99.90;;;;;;5034821;28;20259;-80
2022/10/13 08:33:34;;;;;;;0.10;0.10;;;12.60;99.90;;;;;;5037417;28;20216;-80
2022/10/13 08:36:00;;;;;;;0.03;0.03;;;12.70;99.90;;;;;;5033836;28;20769;-80
2022/10/13 08:38:26;;;;;;;0.10;0.10;;;12.80;99.90;;;;;;5034057;28;20256;-80
2022/10/13 08:40:52;;;;;;;0.10;0.10;;;12.70;99.90;;;;;;5034782;28;20191;-80
2022/10/13 08:43:20;;;;;;;0.10;0.10;;;12.60;99.90;;;;;;5032477;28;20186;-79
2022/10/13 08:45:49;;;;;;;0.10;0.10;;;12.30;99.90;;;;;;5032667;28;20205;-79
2022/10/13 08:48:20;;;;;;;0.10;0.10;;;12.20;99.90;;;;;;5034025;28;20198;-80
2022/10/13 08:50:52;;;;;;;0.10;0.10;;;12.00;99.90;;;;;;5033024;28;20296;-80
2022/10/13 08:53:39;;;;;;;0.10;0.10;;;11.90;99.90;;;;;;5033121;28;20560;-80
2022/10/13 08:56:12;;;;;;;0.10;0.10;;;12.00;99.90;;;;;;5033897;28;20362;-80
2022/10/13 08:58:40;;;;;;;0.10;0.10;;;12.20;99.90;;;;;;5034188;28;20659;-79
2022/10/13 09:01:09;;;;;;;0.10;0.10;;;12.00;99.90;;;;;;5031200;28;20193;-79
2022/10/13 09:03:54;;;;;;;0.10;0.10;;;12.10;99.90;;;;;;5035299;28;20193;-80
2022/10/13 09:06:31;;;;;;;0.10;0.10;;;12.20;99.90;;;;;;5035573;28;20190;-80
2022/10/13 09:08:59;;;;;;;0.10;0.10;;;12.40;99.90;;;;;;5027979;28;20233;-78
2022/10/13 09:11:27;;;;;;;0.10;0.10;;;12.50;99.90;;;;;;5028930;28;20189;-78
2022/10/13 09:13:58;;;;;;;0.10;0.10;;;12.60;99.90;;;;;;5027737;28;20228;-78
2022/10/13 09:16:41;;;;;;;0.10;0.10;;;12.80;99.90;;;;;;5031275;28;20218;-78
2022/10/13 09:19:18;;;;;;;0.10;0.10;;;12.90;99.90;;;;;;5030240;28;20237;-79
2022/10/13 09:21:43;;;;;;;0.10;0.10;;;13.30;99.90;;;;;;5032311;28;20187;-79
2022/10/13 09:24:15;;;;;;;0.10;0.10;;;13.50;99.90;;;;;;5029553;28;20205;-79
2022/10/13 09:26:42;;;;;;;0.10;0.10;;;13.70;99.90;;;;;;5029793;28;20182;-79
2022/10/13 09:29:20;;;;;;;0.10;0.10;;;13.90;99.90;;;;;;5030124;28;20206;-78
2022/10/13 09:31:46;;;;;;;0.10;0.10;;;14.00;99.90;;;;;;5031695;28;20345;-79
2022/10/13 09:34:29;;;;;;;0.10;0.10;;;14.00;99.90;;;;;;5030409;28;22301;-79
2022/10/13 09:37:01;;;;;;;0.10;0.10;;;14.10;99.90;;;;;;5038251;28;20715;-79
2022/10/13 09:39:28;;;;;;;0.10;0.10;;;14.00;99.90;;;;;;5036733;28;20210;-79
2022/10/13 09:42:21;;;;;;;0.10;0.10;;;14.00;99.90;;;;;;5034374;28;20200;-79
2022/10/13 09:44:55;;;;;;;0.10;0.10;;;14.00;99.90;;;;;;5034701;28;20182;-79
2022/10/13 09:47:21;;;;;;;0.10;0.10;;;13.90;99.90;;;;;;5033183;28;20177;-78
2022/10/13 09:50:15;;;;;;;0.10;0.10;;;13.90;99.90;;;;;;5034752;28;20202;-79
2022/10/13 09:52:41;;;;;;;0.10;0.10;;;13.80;99.90;;;;;;5032923;28;20596;-79
2022/10/13 09:55:28;;;;;;;0.10;0.10;;;13.90;99.90;;;;;;5036937;28;20305;-79
2022/10/13 09:57:59;;;;;;;0.10;0.10;;;14.00;99.90;;;;;;5031852;28;20502;-78
2022/10/13 10:00:26;;;;;;;0.10;0.10;;;14.10;99.90;;;;;;5033733;28;20302;-78
2022/10/13 10:03:11;;;;;;;0.10;0.10;;;14.30;99.90;;;;;;5033770;28;20193;-78
2022/10/13 10:05:54;;;;;;;0.10;0.10;;;14.60;99.90;;;;;;5032477;28;20660;-79
2022/10/13 10:08:22;;;;;;;0.10;0.10;;;14.70;99.90;;;;;;5035598;28;20217;-78
2022/10/13 10:10:48;;;;;;;0.03;0.03;;;14.70;99.90;;;;;;5033310;28;20196;-78
2022/10/13 10:13:14;;;;;;;0.10;0.10;;;14.10;99.90;;;;;;5032191;28;20194;-78
2022/10/13 10:15:56;;;;;;;0.10;0.10;;;14.30;99.90;;;;;;5031622;28;20740;-78
2022/10/13 10:18:26;;;;;;;0.10;0.10;;;14.50;99.90;;;;;;5032612;28;20207;-78
2022/10/13 10:21:02;;;;;;;0.10;0.10;;;14.40;99.90;;;;;;5028014;28;20177;-78
2022/10/13 10:23:50;;;;;;;0.10;0.10;;;14.70;99.90;;;;;;5032134;28;20515;-78
2022/10/13 10:26:25;;;;;;;0.10;0.10;;;14.90;99.90;;;;;;5031167;28;20271;-79
2022/10/13 10:29:16;;;;;;;0.10;0.10;;;15.00;99.90;;;;;;5031176;28;20301;-78
2022/10/13 10:32:07;;;;;;;0.10;0.10;;;14.90;99.90;;;;;;5029143;28;20181;-79
2022/10/13 10:35:02;;;;;;;0.10;0.10;;;15.30;99.90;;;;;;5033140;28;20214;-78
2022/10/13 10:38:07;;;;;;;0.10;0.10;;;15.20;99.90;;;;;;5026497;28;20309;-78
2022/10/13 10:40:39;;;;;;;0.10;0.10;;;14.80;99.90;;;;;;5013845;28;20235;-78
2022/10/13 10:43:35;;;;;;;0.10;0.10;;;15.30;99.90;;;;;;5030372;28;20175;-78
2022/10/13 10:46:01;;;;;;;0.10;0.10;;;15.60;99.90;;;;;;5031378;28;20194;-78
2022/10/13 10:48:34;;;;;;;0.10;0.10;;;15.90;99.90;;;;;;5027864;28;20654;-79
2022/10/13 10:51:00;;;;;;;0.10;0.10;;;16.10;99.90;;;;;;5048459;28;20197;-81
2022/10/13 10:53:33;;;;;;;0.10;0.10;;;16.30;99.90;;;;;;5037883;28;20193;-81
2022/10/13 10:56:38;;;;;;;0.10;0.10;;;16.20;99.90;;;;;;5034072;28;20296;-81
2022/10/13 10:59:25;;;;;;;0.10;0.10;;;16.50;99.90;;;;;;5032074;28;20208;-81
2022/10/13 11:01:51;;;;;;;0.10;0.10;;;16.50;99.90;;;;;;5032884;28;20184;-81
2022/10/13 11:04:36;;;;;;;0.10;0.10;;;16.80;99.90;;;;;;5035525;28;20253;-82
2022/10/13 11:07:03;;;;;;;0.10;0.10;;;16.00;99.90;;;;;;5032337;28;20212;-81
2022/10/13 11:09:41;;;;;;;0.10;0.10;;;15.50;99.90;;;;;;5037432;28;20229;-81
2022/10/13 11:13:05;;;;;;;0.10;0.10;;;16.00;99.90;;;;;;5034600;28;20190;-81
2022/10/13 11:15:40;;;;;;;0.10;0.10;;;16.40;99.90;;;;;;4986842;28;20232;-81
2022/10/13 11:18:43;;;;;;;0.10;0.10;;;16.30;99.90;;;;;;5034265;28;20193;-81
2022/10/13 11:21:09;;;;;;;0.10;0.10;;;16.30;99.90;;;;;;5034242;28;20198;-81
2022/10/13 11:23:43;;;;;;;0.10;0.10;;;16.60;99.90;;;;;;5036276;28;20587;-81
2022/10/13 11:26:30;;;;;;;0.10;0.10;;;16.90;99.90;;;;;;5035489;28;20193;-81
2022/10/13 11:28:56;;;;;;;0.10;0.10;;;17.00;99.90;;;;;;5030785;28;20777;-79
2022/10/13 11:31:30;;;;;;;0.10;0.10;;;17.10;99.90;;;;;;5032948;28;20531;-81
2022/10/13 11:33:59;;;;;;;0.10;0.10;;;16.90;99.90;;;;;;5035938;28;20248;-80
2022/10/13 11:36:50;;;;;;;0.10;0.10;;;17.10;99.90;;;;;;5036048;28;20676;-81
2022/10/13 11:39:27;;;;;;;0.10;0.10;;;17.20;99.90;;;;;;5035581;28;20287;-80
2022/10/13 11:42:08;;;;;;;0.10;0.10;;;17.20;99.90;;;;;;5034788;28;20182;-81
2022/10/13 11:44:36;;;;;;;0.10;0.10;;;17.10;99.90;;;;;;5036376;28;20186;-80
2022/10/13 11:47:18;;;;;;;0.10;0.10;;;16.50;99.90;;;;;;5034957;28;20192;-80
2022/10/13 11:49:57;;;;;;;0.10;0.10;;;16.80;99.90;;;;;;5036766;28;20210;-81
2022/10/13 11:52:54;;;;;;;0.10;0.10;;;16.80;99.90;;;;;;5034822;28;20233;-81
2022/10/13 11:55:50;;;;;;;0.10;0.10;;;17.00;99.90;;;;;;5034434;28;20233;-80
2022/10/13 11:58:24;;;;;;;0.10;0.10;;;16.80;99.90;;;;;;5034774;28;20206;-80
2022/10/13 12:01:01;;;;;;;0.10;0.10;;;17.00;99.90;;;;;;5032107;28;20176;-80
2022/10/13 12:03:28;;;;;;;0.10;0.10;;;17.10;99.90;;;;;;5033745;28;20218;-80
2022/10/13 12:06:19;;;;;;;0.10;0.10;;;17.10;99.90;;;;;;5037900;28;20196;-80
2022/10/13 12:08:48;;;;;;;0.10;0.10;;;17.00;99.90;;;;;;5034531;28;20260;-80
2022/10/13 12:11:32;;;;;;;0.10;0.10;;;17.10;99.90;;;;;;5033828;28;20189;-80
2022/10/13 12:13:59;;;;;;;0.10;0.10;;;17.10;99.90;;;;;;5034325;28;20193;-80
2022/10/13 12:16:26;;;;;;;0.10;0.10;;;17.00;99.90;;;;;;5033258;28;20267;-80
2022/10/13 12:18:52;;;;;;;0.10;0.10;;;16.70;99.90;;;;;;5033455;28;20586;-80
2022/10/13 12:21:20;;;;;;;0.10;0.10;;;16.90;99.90;;;;;;5035393;28;20194;-80
2022/10/13 12:23:50;;;;;;;0.10;0.10;;;17.00;99.90;;;;;;5033778;28;22063;-80
2022/10/13 12:26:19;;;;;;;0.10;0.10;;;17.10;99.90;;;;;;5036349;28;20251;-80
2022/10/13 12:28:51;;;;;;;0.10;0.10;;;17.00;99.90;;;;;;5035449;28;20608;-79
2022/10/13 12:31:22;;;;;;;0.10;0.10;;;17.10;99.90;;;;;;5035927;28;20186;-80
2022/10/13 12:33:56;;;;;;;0.10;0.10;;;17.10;99.90;;;;;;5034936;28;20186;-80
2022/10/13 12:36:32;;;;;;;0.10;0.10;;;17.00;99.90;;;;;;5036920;28;20210;-79
2022/10/13 12:39:01;;;;;;;0.10;0.10;;;16.90;99.90;;;;;;5036587;28;20228;-80
2022/10/13 12:41:37;;;;;;;0.10;0.10;;;17.00;99.90;;;;;;5034939;28;20246;-80
2022/10/13 12:44:04;;;;;;;0.10;0.10;;;17.00;99.90;;;;;;5035761;28;20186;-80
2022/10/13 12:46:52;;;;;;;0.10;0.10;;;16.90;99.90;;;;;;5034493;28;20191;-81
2022/10/13 12:49:30;;;;;;;0.10;0.10;;;17.00;99.90;;;;;;5035900;28;20687;-81
2022/10/13 12:52:10;;;;;;;0.10;0.10;;;16.90;99.90;;;;;;5038780;28;20293;-81
2022/10/13 12:54:50;;;;;;;0.10;0.10;;;16.80;99.90;;;;;;5036249;28;20201;-81
2022/10/13 12:57:18;;;;;;;0.10;0.10;;;16.80;99.90;;;;;;5038714;28;20602;-81
2022/10/13 12:59:44;;;;;;;0.10;0.10;;;16.80;99.90;;;;;;5033087;28;20208;-81
2022/10/13 13:02:35;;;;;;;0.10;0.10;;;16.80;99.90;;;;;;5033691;28;20601;-82
2022/10/13 13:05:01;;;;;;;0.10;0.10;;;16.80;99.90;;;;;;5033817;28;20231;-82
2022/10/13 13:07:35;;;;;;;0.10;0.10;;;16.90;99.90;;;;;;5040349;28;20186;-82